Time;durP1;ratioP1;P1;durP2;ratioP2;P2;SDS_P1;SDS_P2;PMS_P1;PMS_P2;Temp;Humidity;BMP_temperature;BMP_pressure;BME280_temperature;BME280_humidity;BME280_pressure;Samples;Min_cycle;Max_cycle;Signal;HPM_P1;HPM_P2
2022/09/23 00:05:15;;;;;;;;;;;;;;;12.08;55.99414;101856.6;;;;-79
2022/09/23 00:10:15;;;;;;;;;;;;;;;12.06;56.87598;101856.8;;;;-76
2022/09/23 00:14:24;;;;;;;6.7;3.6;;;;;;;;;;;;;-77
2022/09/23 00:15:15;;;;;;;;;;;;;;;12.1;56.53418;101849.8;;;;-80
2022/09/23 00:20:16;;;;;;;;;;;;;;;12.03;56.06641;101849.6;;;;-76
2022/09/23 00:25:15;;;;;;;;;;;;;;;12.02;56.2666;101841.3;;;;-75
2022/09/23 00:30:17;;;;;;;;;;;;;;;12;56.12988;101842.3;;;;-74
2022/09/23 00:35:15;;;;;;;;;;;;;;;11.96;56.44824;101831.1;;;;-74
2022/09/23 00:40:15;;;;;;;;;;;;;;;11.93;56.52344;101832.3;;;;-73
2022/09/23 00:44:37;;;;;;;7;3.9;;;;;;;;;;;;;-76
2022/09/23 00:45:16;;;;;;;;;;;;;;;11.89;56.40723;101836.5;;;;-75
2022/09/23 00:50:17;;;;;;;;;;;;;;;11.82;57.06836;101828.5;;;;-74
2022/09/23 00:55:18;;;;;;;;;;;;;;;11.79;56.37012;101823.7;;;;-74
2022/09/23 01:00:21;;;;;;;;;;;;;;;11.7;56.21387;101827;;;;-75
2022/09/23 01:05:18;;;;;;;;;;;;;;;11.68;56.65918;101821.4;;;;-73
2022/09/23 01:10:18;;;;;;;;;;;;;;;11.64;56.60938;101817.1;;;;-74
2022/09/23 01:14:39;;;;;;;8.8;4.1;;;;;;;;;;;;;-73
2022/09/23 01:15:18;;;;;;;;;;;;;;;11.6;56.54785;101816.9;;;;-75
2022/09/23 01:20:33;;;;;;;;;;;;;;;11.53;56.35938;101816.9;;;;-76
2022/09/23 01:25:39;;;;;;;;;;;;;;;11.46;56.63086;101811.1;;;;-74
2022/09/23 01:30:20;;;;;;;;;;;;;;;11.43;56.88379;101806.1;;;;-76
2022/09/23 01:35:21;;;;;;;;;;;;;;;11.4;56.72266;101801.5;;;;-74
2022/09/23 01:40:20;;;;;;;;;;;;;;;11.33;57.19336;101798.8;;;;-74
2022/09/23 01:44:32;;;;;;;8.9;4.7;;;;;;;;;;;;;-74
2022/09/23 01:45:18;;;;;;;;;;;;;;;11.32;57.11523;101791.9;;;;-74
2022/09/23 01:55:18;;;;;;;;;;;;;;;11.27;57.09766;101784;;;;-74
2022/09/23 02:00:17;;;;;;;;;;;;;;;11.26;57.97559;101781.5;;;;-73
2022/09/23 02:05:22;;;;;;;;;;;;;;;11.2;57.5332;101776.3;;;;-75
2022/09/23 02:10:20;;;;;;;;;;;;;;;11.19;57.60938;101768.7;;;;-75
2022/09/23 02:14:32;;;;;;;8.9;5;;;;;;;;;;;;;-73
2022/09/23 02:15:16;;;;;;;;;;;;;;;11.18;57.92188;101761.9;;;;-74
2022/09/23 02:20:19;;;;;;;;;;;;;;;11.11;57.67773;101759.8;;;;-75
2022/09/23 02:25:16;;;;;;;;;;;;;;;11.08;57.22754;101758;;;;-74
2022/09/23 02:30:17;;;;;;;;;;;;;;;11.03;57.54492;101754.4;;;;-76
2022/09/23 02:35:18;;;;;;;;;;;;;;;10.98;57.00293;101748.9;;;;-74
2022/09/23 02:40:22;;;;;;;;;;;;;;;10.93;57.49707;101739.9;;;;-73
2022/09/23 02:44:34;;;;;;;9.1;5;;;;;;;;;;;;;-75
2022/09/23 02:45:15;;;;;;;;;;;;;;;10.89;58.09375;101733.9;;;;-74
2022/09/23 02:50:17;;;;;;;;;;;;;;;10.88;58.01563;101736.1;;;;-73
2022/09/23 02:55:17;;;;;;;;;;;;;;;10.84;57.91992;101729.1;;;;-73
2022/09/23 03:00:16;;;;;;;;;;;;;;;10.8;57.66992;101727.9;;;;-75
2022/09/23 03:05:24;;;;;;;;;;;;;;;10.75;57.58594;101721.7;;;;-74
2022/09/23 03:10:19;;;;;;;;;;;;;;;10.77;58.01172;101722.4;;;;-74
2022/09/23 03:14:35;;;;;;;10.2;5;;;;;;;;;;;;;-75
2022/09/23 03:15:22;;;;;;;;;;;;;;;10.71;57.68066;101723.1;;;;-74
2022/09/23 03:20:18;;;;;;;;;;;;;;;10.69;58.0791;101714.3;;;;-74
2022/09/23 03:25:18;;;;;;;;;;;;;;;10.7;58.18164;101709.1;;;;-74
2022/09/23 03:30:16;;;;;;;;;;;;;;;10.7;58.50391;101699.3;;;;-74
2022/09/23 03:35:17;;;;;;;;;;;;;;;10.68;58.42383;101699.3;;;;-74
2022/09/23 03:40:20;;;;;;;;;;;;;;;10.67;58.25488;101700.8;;;;-75
2022/09/23 03:44:32;;;;;;;9.1;4.8;;;;;;;;;;;;;-74
2022/09/23 03:45:17;;;;;;;;;;;;;;;10.65;57.70703;101700.7;;;;-75
2022/09/23 03:50:16;;;;;;;;;;;;;;;10.65;57.52832;101695.4;;;;-75
2022/09/23 03:55:16;;;;;;;;;;;;;;;10.6;57.55566;101691.8;;;;-74
2022/09/23 04:00:16;;;;;;;;;;;;;;;10.62;57.41211;101694;;;;-74
2022/09/23 04:05:16;;;;;;;;;;;;;;;10.62;57.16797;101682.9;;;;-75
2022/09/23 04:10:15;;;;;;;;;;;;;;;10.58;57.62988;101676.3;;;;-75
2022/09/23 04:14:33;;;;;;;7.9;4.3;;;;;;;;;;;;;-74
2022/09/23 04:15:15;;;;;;;;;;;;;;;10.61;57.31055;101675.2;;;;-75
2022/09/23 04:20:17;;;;;;;;;;;;;;;10.63;57.83789;101668.6;;;;-75
2022/09/23 04:25:15;;;;;;;;;;;;;;;10.66;57.38477;101668.7;;;;-74
2022/09/23 04:30:17;;;;;;;;;;;;;;;10.66;57.66211;101668.5;;;;-76
2022/09/23 04:35:15;;;;;;;;;;;;;;;10.69;57.05371;101671.7;;;;-76
2022/09/23 04:40:15;;;;;;;;;;;;;;;10.75;57.14063;101668.3;;;;-73
2022/09/23 04:44:33;;;;;;;8.9;4.3;;;;;;;;;;;;;-75
2022/09/23 04:45:15;;;;;;;;;;;;;;;10.77;57.33203;101658.8;;;;-75
2022/09/23 04:50:15;;;;;;;;;;;;;;;10.76;57.56543;101652.5;;;;-75
2022/09/23 04:55:15;;;;;;;;;;;;;;;10.76;57.74219;101652.1;;;;-75
2022/09/23 05:00:16;;;;;;;;;;;;;;;10.79;57.66797;101660;;;;-74
2022/09/23 05:05:20;;;;;;;;;;;;;;;10.83;57.11621;101666.5;;;;-75
2022/09/23 05:10:15;;;;;;;;;;;;;;;10.87;58.05762;101661.9;;;;-75
2022/09/23 05:14:34;;;;;;;7.5;4;;;;;;;;;;;;;-75
2022/09/23 05:15:15;;;;;;;;;;;;;;;10.88;58.04883;101664.8;;;;-74
2022/09/23 05:20:18;;;;;;;;;;;;;;;10.93;57.44336;101666.8;;;;-75
2022/09/23 05:25:15;;;;;;;;;;;;;;;10.94;57.00977;101660.2;;;;-75
2022/09/23 05:30:15;;;;;;;;;;;;;;;10.98;57.30371;101662.9;;;;-75
2022/09/23 05:35:15;;;;;;;;;;;;;;;11;58.04199;101661.9;;;;-75
2022/09/23 05:40:15;;;;;;;;;;;;;;;11.06;57.78223;101666.5;;;;-75
2022/09/23 05:44:35;;;;;;;8.1;4.1;;;;;;;;;;;;;-75
2022/09/23 05:45:16;;;;;;;;;;;;;;;11.1;57.24121;101666.6;;;;-75
2022/09/23 05:50:18;;;;;;;;;;;;;;;11.14;56.95703;101666.4;;;;-76
2022/09/23 05:55:15;;;;;;;;;;;;;;;11.16;57.37109;101669.1;;;;-75
2022/09/23 06:00:16;;;;;;;;;;;;;;;11.21;57.07715;101663.8;;;;-74
2022/09/23 06:05:15;;;;;;;;;;;;;;;11.26;57.23926;101667.2;;;;-75
2022/09/23 06:10:15;;;;;;;;;;;;;;;11.32;57.04688;101669.6;;;;-74
2022/09/23 06:14:39;;;;;;;8.5;4.2;;;;;;;;;;;;;-74
2022/09/23 06:15:15;;;;;;;;;;;;;;;11.34;56.86035;101665.8;;;;-76
2022/09/23 06:20:15;;;;;;;;;;;;;;;11.37;56.91895;101667.7;;;;-77
2022/09/23 06:25:17;;;;;;;;;;;;;;;11.44;57.85449;101662.5;;;;-74
2022/09/23 06:30:16;;;;;;;;;;;;;;;11.48;57.30273;101665.8;;;;-75
2022/09/23 06:35:17;;;;;;;;;;;;;;;11.55;57.01074;101664.1;;;;-76
2022/09/23 06:40:16;;;;;;;;;;;;;;;11.61;57.33105;101666.7;;;;-77
2022/09/23 06:44:38;;;;;;;7.9;4.1;;;;;;;;;;;;;-75
2022/09/23 06:45:16;;;;;;;;;;;;;;;11.68;57.19531;101665.8;;;;-76
2022/09/23 06:50:15;;;;;;;;;;;;;;;11.75;57.40527;101664.4;;;;-75
2022/09/23 06:55:16;;;;;;;;;;;;;;;11.83;57.48242;101664.6;;;;-77
2022/09/23 07:00:16;;;;;;;;;;;;;;;11.93;58.00977;101668.2;;;;-70
2022/09/23 07:05:16;;;;;;;;;;;;;;;11.99;58.3877;101660.3;;;;-69
2022/09/23 07:10:15;;;;;;;;;;;;;;;12.03;57.83301;101660.5;;;;-71
2022/09/23 07:14:38;;;;;;;9.4;5.1;;;;;;;;;;;;;-70
2022/09/23 07:15:15;;;;;;;;;;;;;;;12.06;57.9043;101665.4;;;;-71
2022/09/23 07:20:16;;;;;;;;;;;;;;;12.1;57.5293;101667.1;;;;-71
2022/09/23 07:25:15;;;;;;;;;;;;;;;12.14;57.76855;101667.9;;;;-73
2022/09/23 07:30:15;;;;;;;;;;;;;;;12.19;57.6084;101667.4;;;;-75
2022/09/23 07:35:15;;;;;;;;;;;;;;;12.23;57.34473;101664;;;;-76
2022/09/23 07:40:15;;;;;;;;;;;;;;;12.27;58.06641;101656.1;;;;-75
2022/09/23 07:44:40;;;;;;;9.5;5.1;;;;;;;;;;;;;-76
2022/09/23 07:45:15;;;;;;;;;;;;;;;12.35;57.94141;101654.6;;;;-75
2022/09/23 07:50:15;;;;;;;;;;;;;;;12.44;58.19043;101658.4;;;;-75
2022/09/23 07:55:15;;;;;;;;;;;;;;;12.47;59.17773;101658.1;;;;-75
2022/09/23 08:00:16;;;;;;;;;;;;;;;12.63;57.67871;101658.1;;;;-74
2022/09/23 08:05:15;;;;;;;;;;;;;;;12.79;57.68652;101660.2;;;;-75
2022/09/23 08:10:17;;;;;;;;;;;;;;;12.91;57.49023;101661.5;;;;-75
2022/09/23 08:14:41;;;;;;;10.1;5.4;;;;;;;;;;;;;-77
2022/09/23 08:15:20;;;;;;;;;;;;;;;13.05;58.12402;101664.5;;;;-74
2022/09/23 08:20:43;;;;;;;;;;;;;;;13.14;58.42871;101664.6;;;;-75
2022/09/23 08:25:15;;;;;;;;;;;;;;;13.2;57.9873;101667.1;;;;-75
2022/09/23 08:30:16;;;;;;;;;;;;;;;13.23;57.12695;101658.5;;;;-75
2022/09/23 08:35:15;;;;;;;;;;;;;;;13.26;57.26758;101657.5;;;;-74
2022/09/23 08:40:16;;;;;;;;;;;;;;;13.31;57.62109;101658.6;;;;-76
2022/09/23 08:44:46;;;;;;;10.2;5.9;;;;;;;;;;;;;-75
2022/09/23 08:45:20;;;;;;;;;;;;;;;13.34;57.74902;101659.1;;;;-75
2022/09/23 08:50:19;;;;;;;;;;;;;;;13.37;58.31348;101658.4;;;;-74
2022/09/23 08:55:18;;;;;;;;;;;;;;;13.42;58.52148;101656.8;;;;-75
2022/09/23 09:00:23;;;;;;;;;;;;;;;13.46;59.19824;101659.9;;;;-75
2022/09/23 09:05:15;;;;;;;;;;;;;;;13.49;58.56445;101659.4;;;;-74
2022/09/23 09:10:20;;;;;;;;;;;;;;;13.54;58.69531;101659.2;;;;-75
2022/09/23 09:14:46;;;;;;;11.8;6.4;;;;;;;;;;;;;-75
2022/09/23 09:15:18;;;;;;;;;;;;;;;13.58;59.13574;101657.2;;;;-74
2022/09/23 09:20:23;;;;;;;;;;;;;;;13.64;58.39355;101657.6;;;;-74
2022/09/23 09:25:21;;;;;;;;;;;;;;;13.67;58.48633;101654;;;;-76
2022/09/23 09:30:19;;;;;;;;;;;;;;;13.72;59.29004;101658.8;;;;-73
2022/09/23 09:35:22;;;;;;;;;;;;;;;13.78;59.29785;101656;;;;-75
2022/09/23 09:40:19;;;;;;;;;;;;;;;13.82;59.14648;101656.8;;;;-74
2022/09/23 09:44:49;;;;;;;9.9;6.4;;;;;;;;;;;;;-75
2022/09/23 09:45:22;;;;;;;;;;;;;;;13.87;58.44629;101653.1;;;;-75
2022/09/23 09:50:20;;;;;;;;;;;;;;;13.94;58.61426;101647.1;;;;-74
2022/09/23 09:55:31;;;;;;;;;;;;;;;14;58.62012;101643.7;;;;-74
2022/09/23 10:00:37;;;;;;;;;;;;;;;14.09;58.28516;101640.7;;;;-74
2022/09/23 10:05:27;;;;;;;;;;;;;;;14.16;58.67676;101637.1;;;;-74
2022/09/23 10:10:20;;;;;;;;;;;;;;;14.25;58.7998;101632.7;;;;-75
2022/09/23 10:14:49;;;;;;;10.8;6.3;;;;;;;;;;;;;-75
2022/09/23 10:15:27;;;;;;;;;;;;;;;14.31;58.35938;101629.9;;;;-75
2022/09/23 10:20:17;;;;;;;;;;;;;;;14.36;58.11914;101627.7;;;;-75
2022/09/23 10:25:19;;;;;;;;;;;;;;;14.41;58.06836;101630.6;;;;-75
2022/09/23 10:30:24;;;;;;;;;;;;;;;14.43;57.43066;101628.4;;;;-74
2022/09/23 10:35:20;;;;;;;;;;;;;;;14.48;57.38086;101628.5;;;;-76
2022/09/23 10:50:22;;;;;;;;;;;;;;;14.62;57.32129;101622.8;;;;-76
2022/09/23 10:55:23;;;;;;;;;;;;;;;14.66;57.5293;101620.9;;;;-75
2022/09/23 11:00:22;;;;;;;;;;;;;;;14.71;57.42383;101621;;;;-74
2022/09/23 11:05:26;;;;;;;;;;;;;;;14.76;57.93555;101618.9;;;;-74
2022/09/23 11:10:26;;;;;;;;;;;;;;;14.85;57.68848;101618.5;;;;-74
2022/09/23 11:15:05;;;;;;;10.3;5.7;;;;;;;;;;;;;-75
2022/09/23 11:15:24;;;;;;;;;;;;;;;14.92;57.86621;101618.9;;;;-72
2022/09/23 11:20:24;;;;;;;;;;;;;;;15.03;57.12695;101618.9;;;;-75
2022/09/23 11:25:26;;;;;;;;;;;;;;;15.11;57.3623;101602.4;;;;-75
2022/09/23 11:30:18;;;;;;;;;;;;;;;15.23;58.05371;101605.5;;;;-75
2022/09/23 11:35:21;;;;;;;;;;;;;;;15.36;58.02637;101603.3;;;;-75
2022/09/23 11:40:20;;;;;;;;;;;;;;;15.52;57.66211;101598.5;;;;-75
2022/09/23 11:44:53;;;;;;;10.6;5.9;;;;;;;;;;;;;-76
2022/09/23 11:45:18;;;;;;;;;;;;;;;15.64;57.46484;101596.5;;;;-74
2022/09/23 11:50:26;;;;;;;;;;;;;;;15.8;57.85742;101588.8;;;;-76
2022/09/23 11:55:19;;;;;;;;;;;;;;;15.9;57.3291;101580.4;;;;-75
2022/09/23 12:00:20;;;;;;;;;;;;;;;15.98;57.43066;101576.9;;;;-76
2022/09/23 12:05:19;;;;;;;;;;;;;;;16.03;57.5625;101566.7;;;;-74
2022/09/23 12:10:15;;;;;;;;;;;;;;;16.15;57.40723;101566.7;;;;-76
2022/09/23 12:14:58;;;;;;;10.1;6.2;;;;;;;;;;;;;-74
2022/09/23 12:15:22;;;;;;;;;;;;;;;16.27;57.80664;101564.9;;;;-73
2022/09/23 12:20:26;;;;;;;;;;;;;;;16.34;58.55957;101567;;;;-75
2022/09/23 12:25:26;;;;;;;;;;;;;;;16.41;58.53613;101566.3;;;;-78
2022/09/23 12:30:20;;;;;;;;;;;;;;;16.49;57.54102;101560.9;;;;-74
2022/09/23 12:35:26;;;;;;;;;;;;;;;16.6;58.3252;101559.7;;;;-75
2022/09/23 12:40:21;;;;;;;;;;;;;;;16.68;57.52246;101555.3;;;;-75
2022/09/23 12:45:05;;;;;;;10.6;6.1;;;;;;;;;;;;;-75
2022/09/23 12:45:36;;;;;;;;;;;;;;;16.77;57.39746;101549.1;;;;-74
2022/09/23 12:50:26;;;;;;;;;;;;;;;16.9;57.31348;101549.3;;;;-73
2022/09/23 12:55:28;;;;;;;;;;;;;;;16.97;57.27734;101546.1;;;;-75
2022/09/23 13:00:24;;;;;;;;;;;;;;;17.06;57.42383;101540.4;;;;-75
2022/09/23 13:10:18;;;;;;;;;;;;;;;17.3;57.18457;101534.9;;;;-75
2022/09/23 13:15:02;;;;;;;12.3;6.7;;;;;;;;;;;;;-75
2022/09/23 13:15:20;;;;;;;;;;;;;;;17.51;57.16504;101532.1;;;;-73
2022/09/23 13:20:29;;;;;;;;;;;;;;;17.64;57.03418;101526.5;;;;-75
2022/09/23 13:25:20;;;;;;;;;;;;;;;17.71;56.43164;101519.4;;;;-74
2022/09/23 13:30:24;;;;;;;;;;;;;;;17.83;57.5;101518.3;;;;-74
2022/09/23 13:35:23;;;;;;;;;;;;;;;17.84;57.41113;101517;;;;-76
2022/09/23 13:40:23;;;;;;;;;;;;;;;17.83;57.41113;101517.5;;;;-76
2022/09/23 13:45:01;;;;;;;12.3;7.2;;;;;;;;;;;;;-75
2022/09/23 13:45:23;;;;;;;;;;;;;;;17.76;57.41113;101518.1;;;;-73
2022/09/23 13:50:20;;;;;;;;;;;;;;;17.71;57.74512;101516.8;;;;-75
2022/09/23 13:55:27;;;;;;;;;;;;;;;17.65;58.23633;101512;;;;-73
2022/09/23 14:00:24;;;;;;;;;;;;;;;17.62;57.83496;101508.4;;;;-74
2022/09/23 14:05:25;;;;;;;;;;;;;;;17.58;58.16992;101503.5;;;;-75
2022/09/23 14:10:19;;;;;;;;;;;;;;;17.57;57.7041;101499.9;;;;-75
2022/09/23 14:15:02;;;;;;;10.2;6.1;;;;;;;;;;;;;-74
2022/09/23 14:15:20;;;;;;;;;;;;;;;17.55;57.86133;101498.1;;;;-74
2022/09/23 14:20:20;;;;;;;;;;;;;;;17.52;58.27637;101487.8;;;;-74
2022/09/23 14:25:20;;;;;;;;;;;;;;;17.51;58.44336;101485.7;;;;-75
2022/09/23 14:30:18;;;;;;;;;;;;;;;17.49;58.71289;101481.4;;;;-75
2022/09/23 14:35:25;;;;;;;;;;;;;;;17.47;59.49121;101479.9;;;;-74
2022/09/23 14:40:17;;;;;;;;;;;;;;;17.42;60.34277;101475.2;;;;-74
2022/09/23 14:45:07;;;;;;;11.8;6.8;;;;;;;;;;;;;-75
2022/09/23 14:45:20;;;;;;;;;;;;;;;17.33;59.95898;101462.6;;;;-73
2022/09/23 14:55:19;;;;;;;;;;;;;;;17.25;60.16211;101462.6;;;;-75
2022/09/23 15:00:19;;;;;;;;;;;;;;;17.2;61.36523;101460.1;;;;-75
2022/09/23 15:05:19;;;;;;;;;;;;;;;17.16;61.46094;101461.1;;;;-75
2022/09/23 15:10:22;;;;;;;;;;;;;;;17.11;61.5791;101464.2;;;;-75
2022/09/23 15:15:08;;;;;;;10.4;6.6;;;;;;;;;;;;;-75
2022/09/23 15:15:18;;;;;;;;;;;;;;;17.03;60.60547;101458.4;;;;-74
2022/09/23 15:20:20;;;;;;;;;;;;;;;17;61.38281;101454;;;;-74
2022/09/23 15:25:19;;;;;;;;;;;;;;;16.94;59.61035;101456;;;;-76
2022/09/23 15:30:20;;;;;;;;;;;;;;;16.87;61.11523;101453.5;;;;-78
2022/09/23 15:35:17;;;;;;;;;;;;;;;16.82;61.85449;101453.7;;;;-71
2022/09/23 15:40:21;;;;;;;;;;;;;;;16.77;63.41406;101447.9;;;;-75
2022/09/23 15:45:11;;;;;;;8.5;5.4;;;;;;;;;;;;;-75
2022/09/23 15:45:21;;;;;;;;;;;;;;;16.73;63.46484;101439.5;;;;-73
2022/09/23 15:50:15;;;;;;;;;;;;;;;16.71;63.42969;101435.8;;;;-74
2022/09/23 15:55:22;;;;;;;;;;;;;;;16.71;62.57227;101436.8;;;;-74
2022/09/23 16:00:16;;;;;;;;;;;;;;;16.68;62.03809;101432.8;;;;-75
2022/09/23 16:05:20;;;;;;;;;;;;;;;16.65;62.07715;101427.3;;;;-74
2022/09/23 16:10:15;;;;;;;;;;;;;;;16.62;63.24609;101428.1;;;;-73
2022/09/23 16:15:13;;;;;;;11.9;6.3;;;;;;;;;;;;;-72
2022/09/23 16:15:27;;;;;;;;;;;;;;;16.57;64.73926;101431.4;;;;-72
2022/09/23 16:20:17;;;;;;;;;;;;;;;16.52;65.26074;101428.8;;;;-74
2022/09/23 16:25:16;;;;;;;;;;;;;;;16.46;63.92285;101424.6;;;;-76
2022/09/23 16:30:15;;;;;;;;;;;;;;;16.42;63.16211;101421.4;;;;-75
2022/09/23 16:35:15;;;;;;;;;;;;;;;16.38;62.37793;101413.1;;;;-76
2022/09/23 16:40:18;;;;;;;;;;;;;;;16.34;62.60938;101409.6;;;;-73
2022/09/23 16:45:15;;;;;;;11;6;;;;;;;;;;;;;-76
2022/09/23 16:45:24;;;;;;;;;;;;;;;16.28;63.21094;101414.9;;;;-76
2022/09/23 16:50:17;;;;;;;;;;;;;;;16.26;63.88281;101424.3;;;;-75
2022/09/23 16:55:17;;;;;;;;;;;;;;;16.2;62.99609;101426.8;;;;-75
2022/09/23 17:05:17;;;;;;;;;;;;;;;16.15;64.19336;101434.4;;;;-77
2022/09/23 17:10:17;;;;;;;;;;;;;;;16.11;66.96875;101438.5;;;;-77
2022/09/23 17:15:16;;;;;;;;;;;;;;;16.05;66.16016;101439.5;;;;-77
2022/09/23 17:20:15;;;;;;;;;;;;;;;16.01;66.03027;101438.7;;;;-76
2022/09/23 17:25:16;;;;;;;;;;;;;;;15.97;67.18359;101430.1;;;;-78
2022/09/23 17:30:15;;;;;;;;;;;;;;;15.9;66.54297;101432.6;;;;-76
2022/09/23 17:35:15;;;;;;;;;;;;;;;15.87;66.32422;101431.8;;;;-76
2022/09/23 17:40:15;;;;;;;;;;;;;;;15.83;67.06055;101426.8;;;;-74
2022/09/23 17:45:15;;;;;;;;;;;;;;;15.77;67.05078;101429.2;;;;-76
2022/09/23 17:45:24;;;;;;;10.2;6.9;;;;;;;;;;;;;-76
2022/09/23 17:50:15;;;;;;;;;;;;;;;15.74;66.42871;101426.9;;;;-75
2022/09/23 17:55:15;;;;;;;;;;;;;;;15.67;67.7666;101426;;;;-75
2022/09/23 18:00:17;;;;;;;;;;;;;;;15.57;69.60449;101425.5;;;;-75
2022/09/23 18:05:15;;;;;;;;;;;;;;;15.47;69.10547;101424.2;;;;-75
2022/09/23 18:10:15;;;;;;;;;;;;;;;15.45;69.34961;101425.6;;;;-75
2022/09/23 18:15:15;;;;;;;;;;;;;;;15.39;68.89063;101426.2;;;;-76
2022/09/23 18:15:28;;;;;;;5.7;3.7;;;;;;;;;;;;;-76
2022/09/23 18:20:15;;;;;;;;;;;;;;;15.35;68.33594;101424.8;;;;-74
2022/09/23 18:25:15;;;;;;;;;;;;;;;15.29;67.43848;101425;;;;-74
2022/09/23 18:30:16;;;;;;;;;;;;;;;15.23;67.47363;101428.3;;;;-74
2022/09/23 18:35:15;;;;;;;;;;;;;;;15.17;66.8584;101427.3;;;;-75
2022/09/23 18:40:17;;;;;;;;;;;;;;;15.11;66.86133;101423.8;;;;-73
2022/09/23 18:45:15;;;;;;;;;;;;;;;15.06;66.54004;101417.3;;;;-76
2022/09/23 18:45:24;;;;;;;4.3;2.8;;;;;;;;;;;;;-76
2022/09/23 18:55:15;;;;;;;;;;;;;;;14.96;65.68359;101423.3;;;;-74
2022/09/23 19:00:15;;;;;;;;;;;;;;;14.93;65.52051;101423.5;;;;-75
2022/09/23 19:05:15;;;;;;;;;;;;;;;14.9;66.49219;101423.6;;;;-74
2022/09/23 19:10:15;;;;;;;;;;;;;;;14.83;65.0459;101421.4;;;;-75
2022/09/23 19:15:15;;;;;;;;;;;;;;;14.8;66.26367;101415.3;;;;-78
2022/09/23 19:15:25;;;;;;;3.8;2.5;;;;;;;;;;;;;-78
2022/09/23 19:20:15;;;;;;;;;;;;;;;14.77;66.0127;101411.5;;;;-75
2022/09/23 19:25:16;;;;;;;;;;;;;;;14.74;65.35742;101411.9;;;;-75
2022/09/23 19:30:18;;;;;;;;;;;;;;;14.7;65.66699;101413;;;;-75
2022/09/23 19:35:16;;;;;;;;;;;;;;;14.67;66.07617;101413.8;;;;-74
2022/09/23 19:40:15;;;;;;;;;;;;;;;14.65;66.00586;101410.3;;;;-76
2022/09/23 19:45:16;;;;;;;;;;;;;;;14.62;66.33887;101409.9;;;;-74
2022/09/23 19:45:26;;;;;;;5.7;3.5;;;;;;;;;;;;;-74
2022/09/23 19:50:15;;;;;;;;;;;;;;;14.61;66.29199;101410.9;;;;-74
2022/09/23 19:55:15;;;;;;;;;;;;;;;14.6;66.01074;101411.8;;;;-74
2022/09/23 20:00:16;;;;;;;;;;;;;;;14.56;65.82422;101412.8;;;;-75
2022/09/23 20:05:16;;;;;;;;;;;;;;;14.55;66.27344;101408.1;;;;-76
2022/09/23 20:10:17;;;;;;;;;;;;;;;14.53;66.08984;101402.9;;;;-76
2022/09/23 20:15:15;;;;;;;;;;;;;;;14.55;68.77148;101398.3;;;;-75
2022/09/23 20:15:28;;;;;;;9.5;5.8;;;;;;;;;;;;;-75
2022/09/23 20:20:15;;;;;;;;;;;;;;;14.56;68.45898;101391.4;;;;-75
2022/09/23 20:25:16;;;;;;;;;;;;;;;14.58;68.50781;101396.5;;;;-75
2022/09/23 20:30:15;;;;;;;;;;;;;;;14.6;69.90039;101396.6;;;;-76
2022/09/23 20:35:15;;;;;;;;;;;;;;;14.62;69.34277;101397.8;;;;-74
2022/09/23 20:40:15;;;;;;;;;;;;;;;14.6;70.58398;101394.3;;;;-76
2022/09/23 20:45:15;;;;;;;;;;;;;;;14.61;70.41797;101391.1;;;;-76
2022/09/23 20:45:27;;;;;;;13.4;8.8;;;;;;;;;;;;;-75
2022/09/23 20:50:18;;;;;;;;;;;;;;;14.57;70.79004;101381;;;;-75
2022/09/23 20:55:16;;;;;;;;;;;;;;;14.55;70.54102;101376.9;;;;-75
2022/09/23 21:00:17;;;;;;;;;;;;;;;14.53;69.79883;101372.8;;;;-75
2022/09/23 21:05:16;;;;;;;;;;;;;;;14.5;69.26855;101373.3;;;;-77
2022/09/23 21:10:15;;;;;;;;;;;;;;;14.5;69.7373;101376.8;;;;-76
2022/09/23 21:15:15;;;;;;;;;;;;;;;14.47;69.44141;101364.3;;;;-75
2022/09/23 21:15:31;;;;;;;8.3;5.9;;;;;;;;;;;;;-75
2022/09/23 21:20:17;;;;;;;;;;;;;;;14.44;69.88574;101361.6;;;;-78
2022/09/23 21:25:15;;;;;;;;;;;;;;;14.42;69.35645;101366.2;;;;-74
2022/09/23 21:30:16;;;;;;;;;;;;;;;14.41;70.30469;101368.2;;;;-77
2022/09/23 21:35:17;;;;;;;;;;;;;;;14.41;69.92578;101374.1;;;;-74
2022/09/23 21:45:15;;;;;;;;;;;;;;;14.37;70.61328;101368;;;;-75
2022/09/23 21:45:30;;;;;;;9.1;5.3;;;;;;;;;;;;;-75
2022/09/23 21:50:16;;;;;;;;;;;;;;;14.34;70.51855;101363.7;;;;-74
2022/09/23 21:55:15;;;;;;;;;;;;;;;14.33;71.1875;101363;;;;-75
2022/09/23 22:00:18;;;;;;;;;;;;;;;14.31;70.51465;101359;;;;-75
2022/09/23 22:05:15;;;;;;;;;;;;;;;14.3;71.85547;101360.4;;;;-75
2022/09/23 22:10:15;;;;;;;;;;;;;;;14.29;72.21289;101354.8;;;;-74
2022/09/23 22:15:19;;;;;;;;;;;;;;;14.28;71.23633;101354.4;;;;-75
2022/09/23 22:15:32;;;;;;;8.2;5.1;;;;;;;;;;;;;-74
2022/09/23 22:20:15;;;;;;;;;;;;;;;14.25;71.23145;101351.6;;;;-76
2022/09/23 22:25:15;;;;;;;;;;;;;;;14.23;71.07031;101350.7;;;;-73
2022/09/23 22:35:16;;;;;;;;;;;;;;;14.2;70.9209;101349.7;;;;-74
2022/09/23 22:40:16;;;;;;;;;;;;;;;14.18;71.22168;101350.1;;;;-75
2022/09/23 22:45:15;;;;;;;;;;;;;;;14.17;71.25391;101343.8;;;;-75
2022/09/23 22:45:33;;;;;;;8.7;5.1;;;;;;;;;;;;;-73
2022/09/23 22:50:16;;;;;;;;;;;;;;;14.17;70.84961;101341;;;;-75
2022/09/23 22:55:15;;;;;;;;;;;;;;;14.17;71.02832;101339.3;;;;-75
2022/09/23 23:00:15;;;;;;;;;;;;;;;14.17;71.19727;101336.6;;;;-75
2022/09/23 23:05:15;;;;;;;;;;;;;;;14.17;72.21387;101334.2;;;;-75
2022/09/23 23:10:15;;;;;;;;;;;;;;;14.14;71.57324;101329.8;;;;-76
2022/09/23 23:15:17;;;;;;;;;;;;;;;14.14;71.61816;101322.8;;;;-75
2022/09/23 23:15:35;;;;;;;11.3;6.6;;;;;;;;;;;;;-74
2022/09/23 23:20:17;;;;;;;;;;;;;;;14.12;71.2666;101323.3;;;;-76
2022/09/23 23:25:15;;;;;;;;;;;;;;;14.12;71.36719;101319.3;;;;-74
2022/09/23 23:30:15;;;;;;;;;;;;;;;14.1;70.58203;101319.4;;;;-76
2022/09/23 23:35:15;;;;;;;;;;;;;;;14.08;71.49609;101319.4;;;;-75
2022/09/23 23:40:21;;;;;;;;;;;;;;;14.09;70.69238;101314.9;;;;-76
2022/09/23 23:45:15;;;;;;;;;;;;;;;14.07;70.89063;101310;;;;-75
2022/09/23 23:45:37;;;;;;;17.2;8.5;;;;;;;;;;;;;-76
2022/09/23 23:50:15;;;;;;;;;;;;;;;14.05;70.65234;101307.5;;;;-75
2022/09/23 23:55:15;;;;;;;;;;;;;;;14.05;71.07813;101304.4;;;;-75
